createdAt,value
2022-08-16T00:04:42.387Z,63.28
2022-08-16T00:10:07.842Z,63.30
2022-08-16T00:15:52.113Z,63.37
2022-08-16T00:21:21.259Z,63.57
2022-08-16T00:26:43.794Z,63.75
2022-08-16T00:32:13.515Z,63.92
2022-08-16T00:37:58.765Z,64.02
2022-08-16T00:43:19.386Z,64.07
2022-08-16T00:48:43.838Z,64.26
2022-08-16T00:53:56.804Z,64.35
2022-08-16T00:59:27.687Z,64.54
2022-08-16T01:04:44.280Z,64.70
2022-08-16T01:10:34.899Z,64.89
2022-08-16T01:15:58.441Z,64.92
2022-08-16T01:21:36.439Z,65.15
2022-08-16T01:27:11.790Z,65.31
2022-08-16T01:32:39.041Z,65.44
2022-08-16T01:37:57.089Z,65.65
2022-08-16T01:43:09.603Z,65.73
2022-08-16T01:48:32.469Z,65.92
2022-08-16T01:53:55.319Z,66.07
2022-08-16T01:59:30.618Z,66.19
2022-08-16T02:04:54.453Z,66.31
2022-08-16T02:10:17.595Z,66.42
2022-08-16T02:15:44.534Z,66.51
2022-08-16T02:21:01.926Z,66.43
2022-08-16T02:26:15.870Z,66.74
2022-08-16T02:32:02.748Z,67.10
2022-08-16T02:37:51.247Z,67.17
2022-08-16T02:42:57.665Z,67.28
2022-08-16T02:48:28.884Z,67.32
2022-08-16T02:53:51.799Z,67.35
2022-08-16T02:59:15.459Z,67.57
2022-08-16T03:04:50.874Z,67.76
2022-08-16T03:10:19.963Z,67.88
2022-08-16T03:15:49.710Z,67.93
2022-08-16T03:20:59.985Z,68.19
2022-08-16T03:26:32.163Z,68.23
2022-08-16T03:31:59.643Z,68.62
2022-08-16T03:37:11.843Z,68.68
2022-08-16T03:42:34.331Z,68.78
2022-08-16T03:48:21.068Z,68.67
2022-08-16T03:54:01.070Z,68.97
2022-08-16T03:59:10.956Z,69.05
2022-08-16T04:04:42.011Z,69.19
2022-08-16T04:10:36.854Z,69.25
2022-08-16T04:16:06.551Z,69.27
2022-08-16T04:21:29.507Z,69.30
2022-08-16T04:26:57.377Z,69.46
2022-08-16T04:32:09.809Z,69.45
2022-08-16T04:37:42.265Z,69.54
2022-08-16T04:43:11.190Z,69.45
2022-08-16T04:48:35.281Z,69.45
2022-08-16T04:53:50.685Z,69.36
2022-08-16T04:59:02.311Z,69.43
2022-08-16T05:04:19.527Z,69.30
2022-08-16T05:09:28.980Z,69.20
2022-08-16T05:15:21.816Z,69.01
2022-08-16T05:20:45.536Z,68.87
2022-08-16T05:26:04.690Z,68.84
2022-08-16T05:31:16.666Z,68.43
2022-08-16T05:36:37.086Z,68.32
2022-08-16T05:41:46.350Z,68.12
2022-08-16T05:47:02.846Z,68.06
2022-08-16T05:52:22.832Z,67.84
2022-08-16T05:57:41.923Z,67.64
2022-08-16T06:03:04.326Z,67.35
2022-08-16T06:08:46.453Z,67.17
2022-08-16T06:13:57.672Z,66.75
2022-08-16T06:19:18.239Z,66.28
2022-08-16T06:24:54.280Z,66.04
2022-08-16T06:30:03.180Z,65.75
2022-08-16T06:35:16.874Z,65.07
2022-08-16T06:40:33.507Z,64.59
2022-08-16T06:45:44.272Z,64.34
2022-08-16T06:51:09.101Z,63.63
2022-08-16T06:56:22.961Z,62.86
2022-08-16T07:01:53.570Z,62.10
2022-08-16T07:07:14.570Z,61.75
2022-08-16T07:12:47.131Z,61.35
2022-08-16T07:17:53.677Z,60.35
2022-08-16T07:23:01.431Z,59.76
2022-08-16T07:28:20.713Z,59.61
2022-08-16T07:33:52.683Z,58.89
2022-08-16T07:39:08.949Z,58.27
2022-08-16T07:44:18.464Z,57.91
2022-08-16T07:49:32.518Z,57.01
2022-08-16T07:54:45.730Z,56.38
2022-08-16T08:00:00.940Z,55.72
2022-08-16T08:05:35.322Z,54.81
2022-08-16T08:10:51.565Z,54.02
2022-08-16T08:16:19.076Z,53.16
2022-08-16T08:21:58.511Z,52.89
2022-08-16T08:27:02.187Z,52.07
2022-08-16T08:32:57.920Z,51.32
2022-08-16T08:37:55.246Z,50.95
2022-08-16T08:43:12.243Z,50.51
2022-08-16T08:48:34.189Z,49.80
2022-08-16T08:53:57.930Z,49.92
2022-08-16T08:59:19.684Z,49.46
2022-08-16T09:04:40.832Z,49.09
2022-08-16T09:09:48.559Z,49.31
2022-08-16T09:15:13.831Z,49.05
2022-08-16T09:20:25.598Z,48.93
2022-08-16T09:25:40.554Z,48.57
2022-08-16T09:30:54.567Z,48.65
2022-08-16T09:36:02.391Z,47.97
2022-08-16T09:41:31.926Z,47.77
2022-08-16T09:46:48.860Z,47.56
2022-08-16T09:52:06.204Z,47.10
2022-08-16T09:57:17.136Z,47.11
2022-08-16T10:02:27.989Z,47.03
2022-08-16T10:07:45.096Z,46.98
2022-08-16T10:13:14.473Z,47.06
2022-08-16T10:19:00.154Z,46.68
2022-08-16T10:23:56.050Z,46.61
2022-08-16T10:29:04.769Z,46.44
2022-08-16T10:34:30.785Z,46.42
2022-08-16T10:39:41.492Z,46.52
2022-08-16T10:44:53.606Z,46.25
2022-08-16T10:50:05.072Z,46.27
2022-08-16T11:00:57.538Z,45.83
2022-08-16T11:06:07.547Z,45.92
2022-08-16T11:11:20.145Z,46.11
2022-08-16T11:17:02.690Z,46.22
2022-08-16T11:22:38.407Z,46.18
2022-08-16T11:27:35.405Z,45.88
2022-08-16T11:32:45.226Z,45.90
2022-08-16T11:38:47.090Z,45.60
2022-08-16T11:43:36.251Z,45.66
2022-08-16T11:48:46.828Z,45.34
2022-08-16T11:54:09.028Z,45.24
2022-08-16T11:59:29.515Z,45.34
2022-08-16T12:04:52.050Z,45.12
2022-08-16T12:10:04.300Z,44.80
2022-08-16T12:15:17.522Z,44.56
2022-08-16T12:20:27.913Z,44.38
2022-08-16T12:25:38.161Z,44.42
2022-08-16T12:30:55.702Z,44.20
2022-08-16T12:36:03.012Z,44.32
2022-08-16T12:41:11.708Z,43.94
2022-08-16T12:46:19.184Z,43.73
2022-08-16T12:51:58.435Z,43.92
2022-08-16T12:57:06.965Z,44.22
2022-08-16T13:02:33.598Z,44.22
2022-08-16T13:07:51.266Z,44.54
2022-08-16T13:13:02.243Z,44.37
2022-08-16T13:18:27.113Z,44.55
2022-08-16T13:23:51.265Z,45.27
2022-08-16T13:29:08.621Z,46.41
2022-08-16T13:34:18.440Z,48.22
2022-08-16T13:39:26.753Z,50.09
2022-08-16T13:44:50.775Z,51.38
2022-08-16T13:50:13.237Z,52.30
2022-08-16T13:55:41.096Z,53.28
2022-08-16T14:00:48.981Z,53.73
2022-08-16T14:06:06.423Z,54.36
2022-08-16T14:11:16.095Z,55.43
2022-08-16T14:16:37.635Z,55.99
2022-08-16T14:21:56.537Z,56.24
2022-08-16T14:27:04.971Z,56.66
2022-08-16T14:32:22.025Z,57.18
2022-08-16T14:37:52.585Z,57.69
2022-08-16T14:43:15.444Z,58.10
2022-08-16T14:48:26.744Z,58.32
2022-08-16T14:53:39.011Z,58.78
2022-08-16T14:59:13.407Z,59.05
2022-08-16T15:04:39.653Z,59.59
2022-08-16T15:10:00.909Z,60.01
2022-08-16T15:15:16.535Z,60.32
2022-08-16T15:20:29.523Z,60.48
2022-08-16T15:25:41.736Z,61.05
2022-08-16T15:30:59.494Z,61.36
2022-08-16T15:36:12.401Z,61.68
2022-08-16T15:42:04.269Z,61.90
2022-08-16T15:47:18.231Z,62.37
2022-08-16T15:52:29.749Z,62.82
2022-08-16T15:57:51.208Z,62.88
2022-08-16T16:03:09.152Z,63.35
2022-08-16T16:08:24.001Z,63.59
2022-08-16T16:13:41.574Z,63.88
2022-08-16T16:18:52.322Z,64.11
2022-08-16T16:24:03.126Z,64.23
2022-08-16T16:29:40.397Z,64.26
2022-08-16T16:34:50.798Z,64.30
2022-08-16T16:40:03.157Z,64.62
2022-08-16T16:45:18.765Z,64.63
2022-08-16T16:50:27.672Z,64.72
2022-08-16T16:55:51.568Z,64.88
2022-08-16T17:00:59.977Z,65.06
2022-08-16T17:06:10.608Z,65.27
2022-08-16T17:11:18.107Z,65.37
2022-08-16T17:16:32.948Z,65.52
2022-08-16T17:21:56.388Z,65.58
2022-08-16T17:27:08.979Z,65.94
2022-08-16T17:32:34.293Z,66.07
2022-08-16T17:38:11.258Z,66.03
2022-08-16T17:43:44.437Z,66.02
2022-08-16T17:48:52.408Z,66.23
2022-08-16T17:54:00.041Z,66.33
2022-08-16T17:59:15.888Z,66.55
2022-08-16T18:04:49.761Z,66.67
2022-08-16T18:10:32.672Z,66.87
2022-08-16T18:15:42.440Z,67.25
2022-08-16T18:21:27.728Z,67.26
2022-08-16T18:26:46.483Z,67.29
2022-08-16T18:31:57.138Z,67.57
2022-08-16T18:37:04.997Z,67.92
2022-08-16T18:42:23.483Z,67.99
2022-08-16T18:47:29.281Z,67.85
2022-08-16T18:52:58.814Z,68.12
2022-08-16T18:58:17.469Z,68.31
2022-08-16T19:03:26.790Z,68.35
2022-08-16T19:08:47.259Z,68.64
2022-08-16T19:13:57.713Z,68.69
2022-08-16T19:19:08.001Z,68.86
2022-08-16T19:24:18.478Z,68.84
2022-08-16T19:29:28.468Z,69.10
2022-08-16T19:34:41.660Z,69.00
2022-08-16T19:40:37.067Z,69.23
2022-08-16T19:45:45.827Z,69.34
2022-08-16T19:50:56.659Z,69.38
2022-08-16T19:56:06.743Z,69.62
2022-08-16T20:01:15.634Z,69.97
2022-08-16T20:06:37.631Z,70.00
2022-08-16T20:12:12.004Z,70.08
2022-08-16T20:17:42.513Z,70.24
2022-08-16T20:23:24.131Z,70.26
2022-08-16T20:28:53.833Z,70.48
2022-08-16T20:34:36.087Z,70.54
2022-08-16T20:40:28.188Z,70.58
2022-08-16T20:45:57.726Z,70.55
2022-08-16T20:51:24.044Z,70.60
2022-08-16T20:56:42.025Z,70.92
2022-08-16T21:01:58.023Z,71.08
2022-08-16T21:07:12.918Z,71.06
2022-08-16T21:12:58.319Z,71.20
2022-08-16T21:18:19.842Z,71.22
2022-08-16T21:23:50.769Z,71.25
2022-08-16T21:29:11.369Z,71.25
2022-08-16T21:34:34.010Z,71.39
2022-08-16T21:39:46.001Z,71.40
2022-08-16T21:45:10.549Z,71.50
2022-08-16T21:50:47.029Z,71.45
2022-08-16T21:56:06.168Z,71.54
2022-08-16T22:02:01.960Z,71.69
2022-08-16T22:07:30.048Z,71.82
2022-08-16T22:13:06.731Z,71.89
2022-08-16T22:18:22.953Z,72.05
2022-08-16T22:23:57.378Z,71.99
2022-08-16T22:29:19.600Z,72.16
2022-08-16T22:35:15.023Z,72.11
2022-08-16T22:40:46.853Z,72.16
2022-08-16T22:46:06.097Z,72.19
2022-08-16T22:51:55.690Z,72.41
2022-08-16T22:57:37.472Z,72.51
2022-08-16T23:03:11.448Z,72.48
2022-08-16T23:08:46.338Z,72.65
2022-08-16T23:14:07.932Z,72.63
2022-08-16T23:19:30.082Z,72.67
2022-08-16T23:24:56.561Z,72.72
2022-08-16T23:30:15.021Z,72.97
2022-08-16T23:35:45.623Z,72.80
2022-08-16T23:41:09.280Z,72.94
2022-08-16T23:46:40.768Z,73.31
2022-08-16T23:52:13.977Z,73.12
2022-08-16T23:57:34.926Z,72.89
